Time;durP1;ratioP1;P1;durP2;ratioP2;P2;SDS_P1;SDS_P2;PMS_P1;PMS_P2;Temp;Humidity;BMP_temperature;BMP_pressure;BME280_temperature;BME280_humidity;BME280_pressure;Samples;Min_cycle;Max_cycle;Signal;HPM_P1;HPM_P2
2022/08/26 00:01:28;;;;;;;8.50;7.50;;;20.30;85.90;;;;;;5052750;28;20479;-64
2022/08/26 00:03:57;;;;;;;10.20;7.80;;;20.30;86.80;;;;;;5050408;28;20607;-69
2022/08/26 00:06:25;;;;;;;11.10;7.60;;;20.20;87.20;;;;;;5050945;28;20509;-64
2022/08/26 00:08:52;;;;;;;9.17;8.20;;;20.10;88.00;;;;;;5051018;28;20934;-65
2022/08/26 00:11:19;;;;;;;10.10;7.80;;;20.00;88.30;;;;;;5052440;28;20492;-64
2022/08/26 00:13:46;;;;;;;9.70;8.17;;;20.00;88.40;;;;;;5051072;28;20457;-66
2022/08/26 00:16:13;;;;;;;8.30;7.40;;;20.00;88.60;;;;;;5052623;28;20590;-64
2022/08/26 00:18:40;;;;;;;11.10;6.77;;;20.00;88.60;;;;;;5050746;28;20471;-64
2022/08/26 00:21:09;;;;;;;9.07;6.60;;;20.00;88.50;;;;;;5052358;28;20523;-64
2022/08/26 00:23:37;;;;;;;8.10;7.30;;;20.00;88.40;;;;;;5051297;28;20447;-65
2022/08/26 00:26:05;;;;;;;8.30;7.47;;;20.00;88.50;;;;;;5051342;28;20543;-65
2022/08/26 00:28:33;;;;;;;9.20;7.90;;;19.90;88.50;;;;;;5051153;28;20482;-65
2022/08/26 00:31:00;;;;;;;26.60;7.80;;;19.90;88.80;;;;;;5052205;28;20478;-64
2022/08/26 00:33:27;;;;;;;9.00;7.00;;;20.00;89.30;;;;;;5051978;28;20931;-64
2022/08/26 00:35:54;;;;;;;11.33;7.17;;;20.00;89.00;;;;;;5051209;28;20858;-64
2022/08/26 00:38:22;;;;;;;11.60;7.30;;;20.00;89.20;;;;;;5052117;28;20478;-64
2022/08/26 00:40:52;;;;;;;9.03;6.60;;;20.00;89.40;;;;;;5050762;28;20942;-65
2022/08/26 00:43:19;;;;;;;10.37;8.13;;;20.00;89.30;;;;;;5052054;28;20459;-64
2022/08/26 00:45:50;;;;;;;10.80;7.37;;;19.90;89.70;;;;;;5050559;28;20496;-65
2022/08/26 00:48:22;;;;;;;11.47;6.53;;;19.80;89.70;;;;;;5050467;28;20471;-64
2022/08/26 00:50:54;;;;;;;8.93;7.03;;;19.90;89.70;;;;;;5052005;28;20522;-64
2022/08/26 00:53:25;;;;;;;7.17;6.47;;;19.90;89.40;;;;;;5050446;28;20447;-64
2022/08/26 00:55:57;;;;;;;8.10;7.13;;;19.90;89.60;;;;;;5055630;28;20481;-65
2022/08/26 00:58:26;;;;;;;9.57;6.50;;;19.90;89.20;;;;;;5054157;28;20440;-64
2022/08/26 01:00:53;;;;;;;7.20;6.50;;;19.80;89.10;;;;;;5055294;28;20534;-64
2022/08/26 01:03:25;;;;;;;7.03;6.13;;;19.80;88.90;;;;;;5053537;28;20448;-65
2022/08/26 01:05:55;;;;;;;11.53;6.87;;;19.80;89.00;;;;;;5055243;28;20507;-65
2022/08/26 01:08:23;;;;;;;9.40;5.93;;;19.70;88.70;;;;;;5054112;28;20837;-68
2022/08/26 01:10:51;;;;;;;7.50;6.57;;;19.70;88.90;;;;;;5055572;28;20469;-64
2022/08/26 01:13:19;;;;;;;8.93;6.50;;;19.60;89.50;;;;;;5053943;28;20961;-65
2022/08/26 01:15:50;;;;;;;7.30;6.57;;;19.50;90.40;;;;;;5055221;28;20443;-65
2022/08/26 01:18:18;;;;;;;6.87;6.17;;;19.40;90.40;;;;;;5053921;28;20475;-64
2022/08/26 01:20:55;;;;;;;8.70;7.80;;;19.40;90.30;;;;;;5055315;28;20994;-64
2022/08/26 01:23:27;;;;;;;11.47;6.63;;;19.30;90.40;;;;;;5053928;28;20447;-64
2022/08/26 01:26:09;;;;;;;10.23;8.00;;;19.20;90.60;;;;;;5055039;28;20531;-64
2022/08/26 01:28:39;;;;;;;9.47;7.20;;;19.20;90.70;;;;;;5055107;28;20517;-64
2022/08/26 01:31:10;;;;;;;7.90;7.07;;;19.10;90.70;;;;;;5054209;28;20530;-68
2022/08/26 01:33:44;;;;;;;9.83;6.70;;;19.20;91.00;;;;;;5034888;28;20513;-64
2022/08/26 01:36:12;;;;;;;7.87;7.17;;;19.10;91.00;;;;;;5034998;28;21013;-66
2022/08/26 01:38:41;;;;;;;8.33;7.07;;;19.10;91.10;;;;;;5054518;28;20437;-65
2022/08/26 01:41:09;;;;;;;9.00;7.77;;;19.20;91.20;;;;;;5054895;28;20570;-64
2022/08/26 01:43:39;;;;;;;8.47;7.60;;;19.10;90.90;;;;;;5053925;28;20435;-64
2022/08/26 01:46:07;;;;;;;8.63;6.50;;;19.00;90.70;;;;;;5054551;28;20512;-64
2022/08/26 01:48:36;;;;;;;8.50;7.70;;;19.00;90.70;;;;;;5050258;28;20870;-64
2022/08/26 01:51:05;;;;;;;7.00;6.20;;;18.90;90.80;;;;;;5054035;28;20446;-64
2022/08/26 01:53:32;;;;;;;9.10;6.40;;;18.80;91.10;;;;;;5054514;28;20826;-65
2022/08/26 01:56:02;;;;;;;7.17;6.33;;;18.80;91.30;;;;;;5050401;28;20469;-64
2022/08/26 01:58:35;;;;;;;8.67;7.63;;;18.70;91.50;;;;;;5050441;28;20445;-71
2022/08/26 02:01:03;;;;;;;7.80;7.00;;;18.60;91.70;;;;;;5054175;28;20524;-64
2022/08/26 02:03:30;;;;;;;9.37;7.50;;;18.50;91.80;;;;;;5053336;28;20469;-65
2022/08/26 02:06:02;;;;;;;7.60;5.93;;;18.30;92.00;;;;;;5054595;28;20474;-64
2022/08/26 02:08:36;;;;;;;8.97;6.57;;;18.40;92.30;;;;;;5053531;28;20437;-64
2022/08/26 02:11:05;;;;;;;10.03;7.60;;;18.40;92.50;;;;;;5052616;28;20486;-64
2022/08/26 02:13:34;;;;;;;9.90;7.97;;;18.50;92.60;;;;;;5051125;28;20790;-64
2022/08/26 02:16:03;;;;;;;7.57;6.80;;;18.50;92.80;;;;;;5052837;28;20807;-64
2022/08/26 02:18:33;;;;;;;10.10;7.83;;;18.60;93.00;;;;;;5053964;28;20916;-64
2022/08/26 02:21:00;;;;;;;7.90;7.07;;;18.50;93.10;;;;;;5053063;28;20516;-64
2022/08/26 02:23:27;;;;;;;7.93;7.13;;;18.60;93.10;;;;;;5053997;28;20563;-64
2022/08/26 02:25:59;;;;;;;7.37;6.67;;;18.60;93.00;;;;;;5052242;28;20433;-64
2022/08/26 02:28:34;;;;;;;9.10;7.67;;;18.60;92.90;;;;;;5054101;28;20438;-64
2022/08/26 02:31:01;;;;;;;15.13;11.30;;;18.60;93.10;;;;;;5050913;28;20456;-64
2022/08/26 02:33:28;;;;;;;14.83;13.23;;;18.50;93.10;;;;;;5053827;28;20429;-64
2022/08/26 02:35:55;;;;;;;18.73;10.70;;;18.50;93.10;;;;;;5052280;28;20815;-64
2022/08/26 02:38:22;;;;;;;9.83;8.50;;;18.50;93.10;;;;;;5053537;28;20487;-64
2022/08/26 02:40:49;;;;;;;9.57;7.90;;;18.50;93.10;;;;;;5052171;28;20574;-64
2022/08/26 02:43:16;;;;;;;7.07;6.37;;;18.60;93.10;;;;;;5053590;28;20481;-65
2022/08/26 02:45:44;;;;;;;6.40;5.70;;;18.60;93.20;;;;;;5052232;28;20493;-64
2022/08/26 02:48:16;;;;;;;8.03;6.50;;;18.60;93.40;;;;;;5053788;28;20482;-64
2022/08/26 02:50:44;;;;;;;10.80;7.80;;;18.70;93.30;;;;;;5052207;28;21144;-64
2022/08/26 02:53:11;;;;;;;8.23;7.43;;;18.60;93.80;;;;;;5053478;28;20525;-64
2022/08/26 02:55:39;;;;;;;9.60;8.00;;;18.60;93.50;;;;;;5051558;28;20476;-64
2022/08/26 02:58:07;;;;;;;8.33;7.40;;;18.60;93.70;;;;;;5053242;28;20479;-64
2022/08/26 03:00:37;;;;;;;12.33;7.10;;;18.60;93.70;;;;;;5050614;28;20958;-65
2022/08/26 03:03:05;;;;;;;7.77;7.00;;;18.70;93.60;;;;;;5053255;28;20475;-65
2022/08/26 03:05:32;;;;;;;7.77;7.03;;;18.60;93.60;;;;;;5050980;28;20466;-64
2022/08/26 03:07:59;;;;;;;13.80;7.43;;;18.60;93.70;;;;;;5053169;28;20477;-64
2022/08/26 03:10:26;;;;;;;7.43;6.53;;;18.60;93.80;;;;;;5051297;28;20520;-65
2022/08/26 03:12:53;;;;;;;13.90;7.23;;;18.60;93.90;;;;;;5052986;28;20524;-64
2022/08/26 03:15:20;;;;;;;8.90;7.00;;;18.60;93.80;;;;;;5051627;28;20517;-64
2022/08/26 03:17:48;;;;;;;8.63;7.67;;;18.60;93.80;;;;;;5052360;28;20491;-64
2022/08/26 03:20:17;;;;;;;9.40;7.20;;;18.70;93.70;;;;;;5051270;28;20835;-64
2022/08/26 03:22:44;;;;;;;7.90;7.10;;;18.70;93.60;;;;;;5051671;28;20434;-64
2022/08/26 03:25:13;;;;;;;8.00;6.77;;;18.70;93.50;;;;;;5052973;28;20520;-64
2022/08/26 03:27:41;;;;;;;8.00;6.80;;;18.80;93.50;;;;;;5050129;28;20472;-64
2022/08/26 03:32:55;;;;;;;7.03;6.33;;;18.80;93.30;;;;;;5051894;28;20433;-64
2022/08/26 03:35:24;;;;;;;7.17;6.47;;;18.80;93.30;;;;;;5052731;28;20475;-64
2022/08/26 03:37:51;;;;;;;7.00;6.30;;;18.80;93.10;;;;;;5051704;28;20461;-65
2022/08/26 03:40:19;;;;;;;7.83;7.03;;;18.80;92.90;;;;;;5052743;28;20808;-65
2022/08/26 03:42:46;;;;;;;6.93;6.33;;;18.70;92.70;;;;;;5050825;28;20435;-66
2022/08/26 03:45:14;;;;;;;7.77;6.83;;;18.80;92.70;;;;;;5052372;28;20495;-64
2022/08/26 03:47:41;;;;;;;6.70;6.00;;;18.80;92.70;;;;;;5050732;28;20486;-64
2022/08/26 03:50:10;;;;;;;8.50;6.80;;;18.70;92.40;;;;;;5052620;28;20520;-64
2022/08/26 03:52:41;;;;;;;8.60;7.00;;;18.70;92.40;;;;;;5051336;28;20473;-64
2022/08/26 03:55:09;;;;;;;8.43;6.70;;;18.60;92.50;;;;;;5051179;28;20444;-64
2022/08/26 03:57:36;;;;;;;7.17;6.57;;;18.60;92.40;;;;;;5052698;28;20443;-64
2022/08/26 04:00:07;;;;;;;9.83;6.37;;;18.60;92.40;;;;;;5050965;28;20532;-64
2022/08/26 04:02:34;;;;;;;7.07;6.33;;;18.50;92.40;;;;;;5052446;28;20898;-64
2022/08/26 04:05:01;;;;;;;7.27;6.43;;;18.50;92.30;;;;;;5051184;28;20477;-64
2022/08/26 04:07:28;;;;;;;7.33;5.87;;;18.50;92.20;;;;;;5052361;28;20468;-64
2022/08/26 04:09:57;;;;;;;7.03;6.33;;;18.40;92.30;;;;;;5050791;28;20503;-64
2022/08/26 04:12:25;;;;;;;8.77;7.97;;;18.40;92.60;;;;;;5049625;28;20461;-64
2022/08/26 04:14:52;;;;;;;9.97;7.80;;;18.30;92.70;;;;;;5050150;28;20441;-65
2022/08/26 04:17:19;;;;;;;9.90;7.90;;;18.30;92.90;;;;;;5051153;28;20441;-65
2022/08/26 04:19:46;;;;;;;8.70;7.80;;;18.20;93.00;;;;;;5050174;28;20448;-66
2022/08/26 04:22:13;;;;;;;10.20;7.10;;;18.10;93.20;;;;;;5052255;28;20904;-64
2022/08/26 04:24:40;;;;;;;7.17;6.47;;;18.10;93.50;;;;;;5048558;28;20582;-65
2022/08/26 04:27:09;;;;;;;9.30;8.23;;;18.00;93.70;;;;;;5050983;28;21391;-64
2022/08/26 04:29:38;;;;;;;11.73;9.93;;;18.00;93.90;;;;;;5053563;28;20434;-64
2022/08/26 04:32:06;;;;;;;10.80;9.30;;;17.90;94.00;;;;;;5055670;28;20487;-64
2022/08/26 04:34:33;;;;;;;13.73;8.43;;;17.90;94.30;;;;;;5055315;28;20442;-64
2022/08/26 04:37:00;;;;;;;10.83;8.50;;;17.90;94.20;;;;;;5055503;28;20487;-64
2022/08/26 04:39:27;;;;;;;10.60;8.70;;;17.90;94.30;;;;;;5054940;28;20494;-65
2022/08/26 04:41:55;;;;;;;8.83;7.93;;;17.90;94.40;;;;;;5055415;28;20872;-64
2022/08/26 04:44:26;;;;;;;8.00;6.70;;;18.00;94.50;;;;;;5055384;28;20496;-64
2022/08/26 04:46:54;;;;;;;8.60;6.77;;;18.00;94.50;;;;;;5051023;28;20474;-65
2022/08/26 04:49:21;;;;;;;7.33;6.53;;;18.00;94.40;;;;;;5053280;28;20512;-64
2022/08/26 04:51:49;;;;;;;7.27;6.57;;;18.10;94.40;;;;;;5053699;28;20526;-66
2022/08/26 04:54:16;;;;;;;7.17;6.47;;;18.10;94.40;;;;;;5049988;28;20429;-64
2022/08/26 04:56:46;;;;;;;6.87;6.27;;;18.10;94.50;;;;;;5053625;28;20797;-64
2022/08/26 04:59:16;;;;;;;7.77;7.00;;;18.10;94.40;;;;;;5051747;28;20867;-64
2022/08/26 05:01:46;;;;;;;7.80;7.00;;;18.00;94.50;;;;;;5053100;28;20484;-64
2022/08/26 05:04:13;;;;;;;8.67;7.60;;;18.00;94.50;;;;;;5053081;28;20527;-64
2022/08/26 05:06:41;;;;;;;9.10;8.20;;;17.90;94.60;;;;;;5053102;28;20450;-64
2022/08/26 05:09:08;;;;;;;12.20;9.13;;;17.90;94.70;;;;;;5052665;28;20586;-64
2022/08/26 05:11:37;;;;;;;10.70;9.30;;;17.90;94.60;;;;;;5048970;28;20436;-64
2022/08/26 05:14:04;;;;;;;8.63;7.80;;;17.90;94.50;;;;;;5052704;28;20433;-64
2022/08/26 05:16:31;;;;;;;9.13;8.23;;;17.90;94.60;;;;;;5053763;28;20567;-64
2022/08/26 05:19:00;;;;;;;9.20;8.30;;;18.00;94.60;;;;;;5049871;28;20472;-64
2022/08/26 05:21:28;;;;;;;7.50;6.73;;;18.00;94.50;;;;;;5051558;28;20508;-64
2022/08/26 05:23:55;;;;;;;7.10;6.40;;;18.00;95.00;;;;;;5053406;28;20436;-65
2022/08/26 05:26:24;;;;;;;7.50;6.70;;;18.00;95.20;;;;;;5045327;28;20472;-64
2022/08/26 05:28:52;;;;;;;8.53;6.00;;;18.10;95.30;;;;;;5045894;28;20781;-66
2022/08/26 05:31:22;;;;;;;9.83;6.33;;;18.10;95.30;;;;;;5053469;28;20433;-65
2022/08/26 05:33:49;;;;;;;7.20;6.37;;;18.20;95.60;;;;;;5052239;28;20833;-64
2022/08/26 05:36:20;;;;;;;7.40;6.70;;;18.20;95.60;;;;;;5053340;28;20484;-65
2022/08/26 05:38:47;;;;;;;7.03;6.37;;;18.30;95.30;;;;;;5046215;28;20527;-64
2022/08/26 05:41:17;;;;;;;9.53;6.67;;;18.50;95.20;;;;;;5052986;28;20493;-64
2022/08/26 05:43:44;;;;;;;11.60;6.50;;;18.60;95.00;;;;;;5049931;28;20437;-65
2022/08/26 05:46:12;;;;;;;7.40;6.70;;;18.70;94.60;;;;;;5052399;28;20497;-65
2022/08/26 05:48:39;;;;;;;8.30;6.90;;;18.80;94.40;;;;;;5048555;28;21218;-64
2022/08/26 05:51:08;;;;;;;7.17;6.00;;;18.90;94.40;;;;;;5041671;28;20520;-66
2022/08/26 05:53:38;;;;;;;8.10;7.40;;;19.00;94.80;;;;;;5047775;28;20795;-64
2022/08/26 05:56:06;;;;;;;8.73;7.83;;;19.10;95.00;;;;;;5052964;28;20435;-65
2022/08/26 05:58:35;;;;;;;12.27;7.33;;;19.10;94.60;;;;;;5052923;28;20548;-64
2022/08/26 06:01:05;;;;;;;8.10;6.30;;;19.20;94.60;;;;;;5051978;28;20480;-64
2022/08/26 06:03:33;;;;;;;7.23;6.53;;;19.30;94.70;;;;;;5052559;28;20535;-64
2022/08/26 06:06:04;;;;;;;9.83;6.40;;;19.40;94.70;;;;;;5051948;28;20443;-64
2022/08/26 06:08:31;;;;;;;7.17;6.50;;;19.50;94.50;;;;;;5052327;28;20526;-64
2022/08/26 06:11:03;;;;;;;8.27;6.30;;;19.60;94.30;;;;;;5052215;28;20956;-64
2022/08/26 06:13:31;;;;;;;8.50;7.07;;;19.80;94.00;;;;;;5052196;28;20452;-66
2022/08/26 06:15:59;;;;;;;8.47;6.97;;;19.90;94.00;;;;;;5052724;28;20881;-64
2022/08/26 06:18:33;;;;;;;7.47;6.67;;;20.00;94.30;;;;;;5050695;28;20443;-64
2022/08/26 06:21:01;;;;;;;7.97;6.40;;;20.20;94.50;;;;;;5052519;28;20935;-65
2022/08/26 06:26:16;;;;;;;6.70;6.00;;;20.60;92.20;;;;;;5052296;28;20887;-65
2022/08/26 06:28:44;;;;;;;7.40;6.73;;;20.70;92.00;;;;;;5049933;28;20601;-65
2022/08/26 06:31:11;;;;;;;10.63;5.67;;;20.90;91.60;;;;;;5051299;28;20468;-64
2022/08/26 06:33:38;;;;;;;8.20;5.73;;;21.10;91.40;;;;;;5048889;28;20490;-64
2022/08/26 06:36:06;;;;;;;8.73;7.93;;;21.20;88.30;;;;;;5053741;28;20472;-64
2022/08/26 06:38:32;;;;;;;6.00;5.40;;;21.30;88.40;;;;;;5053885;28;20480;-64
2022/08/26 06:40:59;;;;;;;6.07;5.47;;;21.40;88.60;;;;;;5053366;28;20472;-65
2022/08/26 06:43:29;;;;;;;7.07;5.43;;;21.50;87.30;;;;;;5053666;28;20567;-64
2022/08/26 06:46:03;;;;;;;7.13;6.43;;;21.70;86.60;;;;;;5053096;28;20796;-64
2022/08/26 06:48:30;;;;;;;7.27;6.10;;;21.80;86.40;;;;;;5053754;28;20516;-64
2022/08/26 06:51:05;;;;;;;5.87;5.30;;;21.90;86.40;;;;;;5053242;28;20524;-65
2022/08/26 06:53:32;;;;;;;5.70;5.10;;;22.10;85.50;;;;;;5053315;28;20523;-64
2022/08/26 06:56:02;;;;;;;6.17;5.40;;;22.20;85.20;;;;;;5053678;28;20476;-65
2022/08/26 06:58:30;;;;;;;5.10;4.60;;;22.40;84.90;;;;;;5053376;28;20441;-64
2022/08/26 07:00:57;;;;;;;5.20;4.40;;;22.60;85.60;;;;;;5053200;28;20440;-64
2022/08/26 07:03:24;;;;;;;5.70;5.20;;;22.80;83.30;;;;;;5053332;28;20512;-64
2022/08/26 07:05:51;;;;;;;10.40;4.70;;;22.90;83.60;;;;;;5053520;28;20473;-65
2022/08/26 07:08:19;;;;;;;5.57;4.73;;;23.10;78.80;;;;;;5052995;28;20491;-64
2022/08/26 07:10:46;;;;;;;6.37;4.70;;;23.20;79.40;;;;;;5053179;28;20455;-64
2022/08/26 07:13:13;;;;;;;5.70;4.90;;;23.30;75.50;;;;;;5053429;28;21686;-67
2022/08/26 07:15:41;;;;;;;5.30;4.80;;;23.30;74.40;;;;;;5053451;28;20543;-67
2022/08/26 07:18:09;;;;;;;4.80;4.30;;;23.40;75.00;;;;;;5053256;28;20480;-68
2022/08/26 07:20:39;;;;;;;5.17;4.67;;;23.50;74.30;;;;;;5053339;28;20473;-67
2022/08/26 07:23:08;;;;;;;8.80;3.90;;;23.40;71.50;;;;;;5052812;28;20497;-67
2022/08/26 07:25:37;;;;;;;7.30;4.40;;;23.50;73.00;;;;;;5053073;28;20444;-67
2022/08/26 07:28:04;;;;;;;4.60;4.10;;;23.80;72.70;;;;;;5053114;28;20508;-67
2022/08/26 07:30:31;;;;;;;8.07;4.77;;;24.00;71.30;;;;;;5052945;28;20524;-68
2022/08/26 07:33:00;;;;;;;5.17;4.33;;;24.30;70.80;;;;;;5053053;28;20469;-67
2022/08/26 07:35:27;;;;;;;4.63;4.17;;;24.60;70.90;;;;;;5052842;28;20441;-68
2022/08/26 07:37:54;;;;;;;5.30;4.30;;;24.90;71.30;;;;;;5052943;28;20441;-67
2022/08/26 07:40:21;;;;;;;5.13;4.63;;;25.30;72.40;;;;;;5052680;28;20475;-65
2022/08/26 07:42:48;;;;;;;11.80;5.03;;;25.70;72.00;;;;;;5052826;28;20480;-65
2022/08/26 07:45:16;;;;;;;5.73;4.07;;;26.10;70.20;;;;;;5052991;28;20445;-64
2022/08/26 07:47:43;;;;;;;4.17;3.77;;;26.50;67.20;;;;;;5052895;28;20555;-64
2022/08/26 07:50:12;;;;;;;4.57;3.90;;;26.60;64.30;;;;;;5052601;28;20510;-65
2022/08/26 07:52:39;;;;;;;5.30;3.37;;;26.60;61.10;;;;;;5052780;28;20491;-65
2022/08/26 07:55:10;;;;;;;5.77;4.13;;;26.60;58.40;;;;;;5052599;28;20490;-64
2022/08/26 07:57:37;;;;;;;7.20;3.97;;;26.60;60.60;;;;;;5052801;28;20480;-67
2022/08/26 08:00:07;;;;;;;5.80;4.00;;;26.80;60.90;;;;;;5052684;28;20440;-65
2022/08/26 08:02:34;;;;;;;8.90;4.40;;;27.00;59.80;;;;;;5053120;28;20480;-65
2022/08/26 08:05:01;;;;;;;4.03;3.63;;;27.20;62.00;;;;;;5056772;28;20436;-65
2022/08/26 08:07:30;;;;;;;8.93;4.10;;;27.70;61.50;;;;;;5056747;28;20490;-65
2022/08/26 08:09:57;;;;;;;6.23;3.80;;;28.10;58.80;;;;;;5056393;28;20861;-64
2022/08/26 08:12:24;;;;;;;4.50;4.10;;;28.50;56.80;;;;;;5056230;28;20499;-65
2022/08/26 08:14:51;;;;;;;4.70;4.13;;;28.70;55.90;;;;;;5056152;28;20445;-66
2022/08/26 08:17:18;;;;;;;4.03;3.63;;;28.80;57.80;;;;;;5056249;28;20483;-66
2022/08/26 08:19:45;;;;;;;4.40;4.00;;;29.30;56.70;;;;;;5056702;28;20441;-65
2022/08/26 08:22:12;;;;;;;6.27;3.97;;;29.90;57.10;;;;;;5056370;28;20519;-65
2022/08/26 08:24:41;;;;;;;7.53;4.40;;;30.50;55.30;;;;;;5056431;28;20506;-65
2022/08/26 08:27:09;;;;;;;4.80;3.53;;;30.80;51.70;;;;;;5056223;28;20465;-65
2022/08/26 08:29:36;;;;;;;5.87;3.90;;;31.00;52.40;;;;;;5056208;28;20447;-65
2022/08/26 08:32:04;;;;;;;4.00;3.47;;;31.40;52.30;;;;;;5056364;28;20476;-65
2022/08/26 08:34:31;;;;;;;5.90;3.60;;;32.00;51.40;;;;;;5056320;28;20444;-65
2022/08/26 08:36:58;;;;;;;4.40;3.90;;;32.60;48.40;;;;;;5056140;28;20437;-65
2022/08/26 08:39:25;;;;;;;6.20;3.43;;;32.90;46.10;;;;;;5056216;28;20820;-65
2022/08/26 08:42:17;;;;;;;4.63;3.87;;;32.90;46.40;;;;;;5056042;28;20428;-66
2022/08/26 08:44:49;;;;;;;4.80;4.00;;;33.30;45.40;;;;;;5052201;28;20440;-65
2022/08/26 08:47:20;;;;;;;7.73;5.17;;;33.60;43.80;;;;;;5056123;28;20476;-65
2022/08/26 08:49:47;;;;;;;5.70;3.87;;;33.70;41.90;;;;;;5056354;28;20479;-65
2022/08/26 08:52:25;;;;;;;4.60;3.90;;;33.40;40.30;;;;;;5055967;28;20879;-65
2022/08/26 08:54:54;;;;;;;5.07;3.47;;;33.10;39.90;;;;;;5055589;28;20468;-65
2022/08/26 08:57:31;;;;;;;6.17;3.80;;;32.70;40.30;;;;;;5055928;28;20468;-66
2022/08/26 09:00:02;;;;;;;4.83;4.27;;;32.30;40.90;;;;;;5055740;28;20756;-66
2022/08/26 09:02:34;;;;;;;3.83;3.43;;;31.80;42.10;;;;;;5055465;28;20488;-65
2022/08/26 09:05:09;;;;;;;7.00;4.03;;;31.60;41.70;;;;;;5055729;28;20480;-65
2022/08/26 09:07:38;;;;;;;5.20;3.57;;;31.30;41.40;;;;;;5055782;28;20518;-65
2022/08/26 09:10:33;;;;;;;5.50;3.07;;;31.30;41.90;;;;;;5055224;28;20480;-65
2022/08/26 09:13:04;;;;;;;5.67;3.57;;;31.30;42.20;;;;;;5055114;28;20584;-65
2022/08/26 09:15:39;;;;;;;4.50;3.67;;;31.40;42.90;;;;;;5052481;28;20942;-65
2022/08/26 09:18:17;;;;;;;4.40;3.63;;;31.60;43.60;;;;;;5059742;28;20439;-65
2022/08/26 09:20:51;;;;;;;4.80;3.90;;;31.70;43.20;;;;;;5055867;28;20861;-65
2022/08/26 09:23:18;;;;;;;6.33;4.20;;;31.90;40.90;;;;;;5054489;28;20539;-66
2022/08/26 09:25:48;;;;;;;5.00;4.17;;;32.10;41.30;;;;;;5055595;28;20464;-65
2022/08/26 09:28:19;;;;;;;4.73;4.27;;;32.40;41.20;;;;;;5056010;28;20559;-65
2022/08/26 09:30:57;;;;;;;5.20;3.90;;;32.60;40.30;;;;;;5054969;28;20479;-65
2022/08/26 09:33:31;;;;;;;4.80;4.30;;;32.80;40.00;;;;;;5052698;28;20441;-65
2022/08/26 09:36:17;;;;;;;4.33;3.70;;;33.00;39.80;;;;;;5055659;28;20491;-65
2022/08/26 09:38:45;;;;;;;9.10;4.57;;;33.30;40.40;;;;;;5055199;28;20476;-65
2022/08/26 09:41:30;;;;;;;6.33;4.20;;;33.40;39.70;;;;;;5054893;28;20497;-65
2022/08/26 09:44:17;;;;;;;5.10;4.30;;;33.60;39.90;;;;;;5054008;28;20472;-65
2022/08/26 09:46:54;;;;;;;9.20;4.53;;;33.90;41.70;;;;;;5053734;28;20500;-65
2022/08/26 09:49:25;;;;;;;8.23;4.67;;;34.60;40.90;;;;;;5050238;28;20445;-65
2022/08/26 09:52:06;;;;;;;4.30;3.90;;;35.40;39.10;;;;;;5050247;28;20868;-65
2022/08/26 09:54:39;;;;;;;4.70;3.97;;;36.00;40.40;;;;;;5050631;28;20935;-65
2022/08/26 09:57:21;;;;;;;5.53;3.40;;;36.80;38.50;;;;;;5062352;28;20517;-65
2022/08/26 09:59:49;;;;;;;4.20;3.80;;;37.40;37.30;;;;;;5060480;28;20472;-65
2022/08/26 10:02:29;;;;;;;6.20;4.60;;;38.00;34.40;;;;;;5061859;28;20942;-65
2022/08/26 10:04:59;;;;;;;5.27;4.13;;;38.60;35.20;;;;;;5056473;28;20483;-67
2022/08/26 10:07:39;;;;;;;5.57;4.30;;;39.00;31.50;;;;;;5053516;28;20436;-65
2022/08/26 10:10:10;;;;;;;6.63;4.23;;;39.30;31.10;;;;;;5054555;28;20434;-66
2022/08/26 10:12:42;;;;;;;4.47;4.07;;;39.70;30.20;;;;;;5054511;28;20504;-66
2022/08/26 10:15:14;;;;;;;3.83;3.53;;;40.20;31.00;;;;;;5054450;28;20473;-65
2022/08/26 10:17:48;;;;;;;6.47;4.33;;;40.70;29.50;;;;;;5054491;28;20495;-65
2022/08/26 10:20:18;;;;;;;3.90;3.50;;;40.90;28.70;;;;;;5053872;28;20424;-65
2022/08/26 10:22:49;;;;;;;5.57;4.77;;;41.00;29.10;;;;;;5054110;28;20445;-70
2022/08/26 10:25:21;;;;;;;4.70;4.23;;;41.10;27.90;;;;;;5053703;28;20441;-64
2022/08/26 10:27:51;;;;;;;5.17;3.70;;;41.10;28.60;;;;;;5053147;28;20441;-66
2022/08/26 10:30:22;;;;;;;4.43;4.03;;;41.30;29.60;;;;;;5054567;28;20486;-65
2022/08/26 10:32:55;;;;;;;4.20;3.80;;;41.50;28.70;;;;;;5053830;28;20515;-65
2022/08/26 10:35:22;;;;;;;5.50;4.37;;;41.80;28.10;;;;;;5053698;28;20480;-65
2022/08/26 10:37:52;;;;;;;5.53;3.90;;;41.90;28.60;;;;;;5053024;28;20501;-66
2022/08/26 10:40:24;;;;;;;4.40;4.00;;;41.90;28.50;;;;;;5051618;28;20519;-65
2022/08/26 10:42:55;;;;;;;3.80;3.40;;;42.00;26.50;;;;;;5052268;28;20437;-64
2022/08/26 10:45:28;;;;;;;4.40;3.50;;;42.00;26.20;;;;;;5052830;28;20491;-65
2022/08/26 10:48:01;;;;;;;7.20;4.30;;;41.70;26.80;;;;;;5053779;28;20445;-65
2022/08/26 10:50:35;;;;;;;4.20;3.80;;;41.50;26.90;;;;;;5050944;28;20437;-65
2022/08/26 10:53:09;;;;;;;4.80;3.80;;;41.30;26.70;;;;;;5051415;28;20456;-64
2022/08/26 10:55:45;;;;;;;5.50;3.77;;;41.30;26.90;;;;;;5051441;28;20433;-64
2022/08/26 10:58:41;;;;;;;4.17;3.77;;;41.20;26.80;;;;;;5051569;28;20437;-65
2022/08/26 11:04:10;;;;;;;5.73;3.40;;;40.90;26.80;;;;;;5051227;28;20436;-65
2022/08/26 11:06:38;;;;;;;4.07;3.67;;;40.60;27.00;;;;;;5046953;28;20437;-65
2022/08/26 11:09:07;;;;;;;5.00;4.07;;;40.00;26.00;;;;;;5052970;28;20476;-64
2022/08/26 11:11:46;;;;;;;3.53;3.10;;;39.50;27.40;;;;;;5052868;28;20455;-64
2022/08/26 11:14:35;;;;;;;4.40;4.00;;;39.00;28.10;;;;;;5051519;28;20473;-64
2022/08/26 11:17:04;;;;;;;5.03;3.80;;;38.80;28.10;;;;;;5053239;28;20445;-64
2022/08/26 11:19:59;;;;;;;4.30;3.90;;;38.40;28.60;;;;;;5052764;28;20510;-64
2022/08/26 11:22:28;;;;;;;4.67;3.73;;;38.20;28.70;;;;;;5050980;28;20477;-65
2022/08/26 11:25:10;;;;;;;3.87;3.47;;;38.00;29.40;;;;;;5053196;28;20468;-65
2022/08/26 11:28:05;;;;;;;4.13;3.70;;;37.90;30.10;;;;;;5052978;28;20807;-64
2022/08/26 11:30:51;;;;;;;4.53;4.13;;;37.80;31.60;;;;;;5053017;28;20463;-64
2022/08/26 11:33:50;;;;;;;5.40;3.37;;;37.60;31.60;;;;;;5052894;28;20555;-64
2022/08/26 11:37:05;;;;;;;4.20;3.77;;;37.50;30.80;;;;;;5041481;28;20441;-65
2022/08/26 11:39:46;;;;;;;5.70;4.90;;;37.40;30.90;;;;;;5052699;28;20432;-64
2022/08/26 11:42:23;;;;;;;5.10;4.00;;;37.40;29.90;;;;;;5053115;28;20523;-64
2022/08/26 11:44:50;;;;;;;6.70;4.13;;;37.40;30.90;;;;;;5053056;28;20539;-65
2022/08/26 11:47:27;;;;;;;5.10;4.17;;;37.40;30.80;;;;;;5052560;28;20476;-66
2022/08/26 11:50:19;;;;;;;4.90;4.40;;;37.30;30.40;;;;;;5052866;28;20498;-65
2022/08/26 11:52:55;;;;;;;5.17;3.80;;;37.30;31.80;;;;;;5052816;28;20436;-64
2022/08/26 11:55:23;;;;;;;4.27;3.87;;;37.30;31.00;;;;;;5052869;28;20787;-64
2022/08/26 11:57:54;;;;;;;5.90;4.37;;;37.10;30.20;;;;;;5052542;28;20473;-64
2022/08/26 12:00:23;;;;;;;8.30;4.43;;;36.90;30.40;;;;;;5052803;28;20451;-64
2022/08/26 12:02:58;;;;;;;4.40;4.00;;;36.70;30.80;;;;;;5052722;28;20445;-65
2022/08/26 12:05:30;;;;;;;4.43;4.00;;;36.40;32.90;;;;;;5052750;28;21018;-65
2022/08/26 12:08:07;;;;;;;4.77;4.37;;;36.20;34.00;;;;;;5052756;28;20440;-64
2022/08/26 12:10:36;;;;;;;4.93;4.00;;;36.10;33.60;;;;;;5053047;28;20441;-64
2022/08/26 12:13:05;;;;;;;7.43;4.30;;;36.00;34.20;;;;;;5052632;28;21050;-64
2022/08/26 12:15:34;;;;;;;6.80;4.23;;;35.90;34.60;;;;;;5052575;28;20444;-65
2022/08/26 12:18:23;;;;;;;5.10;4.60;;;35.80;34.20;;;;;;5052652;28;20527;-65
2022/08/26 12:20:53;;;;;;;5.10;4.60;;;35.50;33.70;;;;;;5052492;28;20433;-64
2022/08/26 12:23:24;;;;;;;4.47;4.07;;;35.20;35.50;;;;;;5052425;28;20519;-65
2022/08/26 12:26:04;;;;;;;7.20;3.90;;;35.00;35.20;;;;;;5052653;28;20527;-64
2022/08/26 12:28:32;;;;;;;6.20;4.63;;;34.90;36.00;;;;;;5052165;28;20472;-64
2022/08/26 12:31:06;;;;;;;4.50;4.10;;;34.90;36.30;;;;;;5052418;28;20542;-64
2022/08/26 12:33:35;;;;;;;6.03;4.73;;;34.80;37.50;;;;;;5052615;28;20479;-64
2022/08/26 12:36:03;;;;;;;4.70;4.30;;;34.70;37.20;;;;;;5052192;28;20437;-64
2022/08/26 12:38:44;;;;;;;5.33;4.83;;;34.70;37.00;;;;;;5052396;28;20496;-64
2022/08/26 12:41:12;;;;;;;6.17;4.03;;;34.60;36.60;;;;;;5052255;28;20448;-65
2022/08/26 12:43:42;;;;;;;8.83;4.57;;;34.60;36.00;;;;;;5052379;28;20491;-64
2022/08/26 12:46:12;;;;;;;5.33;4.50;;;34.60;37.40;;;;;;5051951;28;20865;-64
2022/08/26 12:48:42;;;;;;;8.40;5.17;;;34.50;37.40;;;;;;5051732;28;20994;-65
2022/08/26 12:51:26;;;;;;;6.17;4.60;;;34.40;38.40;;;;;;5054998;28;20911;-64
2022/08/26 12:53:54;;;;;;;6.40;5.80;;;34.30;38.10;;;;;;5055774;28;21027;-64
2022/08/26 12:56:27;;;;;;;6.17;5.53;;;34.20;37.40;;;;;;5055941;28;20486;-65
2022/08/26 12:59:03;;;;;;;6.13;5.53;;;34.30;37.60;;;;;;5055680;28;20436;-65
2022/08/26 13:01:42;;;;;;;8.67;4.23;;;34.10;37.10;;;;;;5056026;28;20437;-64
2022/08/26 13:04:34;;;;;;;5.17;4.13;;;34.10;36.50;;;;;;5055715;28;20440;-65
2022/08/26 13:07:28;;;;;;;4.30;3.90;;;34.00;37.40;;;;;;5055955;28;20491;-64
2022/08/26 13:09:58;;;;;;;4.93;3.70;;;34.00;36.50;;;;;;5019979;28;20552;-64
2022/08/26 13:12:33;;;;;;;5.03;4.03;;;34.10;36.80;;;;;;5055387;28;20448;-64